createdAt,value
2023-03-18T00:01:42.432Z,98.60
2023-03-18T00:04:11.323Z,98.30
2023-03-18T00:06:40.444Z,98.40
2023-03-18T00:09:08.699Z,98.40
2023-03-18T00:11:37.584Z,98.40
2023-03-18T00:14:05.605Z,98.50
2023-03-18T00:16:35.089Z,98.80
2023-03-18T00:19:04.233Z,98.60
2023-03-18T00:21:32.231Z,98.90
2023-03-18T00:24:00.716Z,98.80
2023-03-18T00:26:29.897Z,99.70
2023-03-18T00:28:58.884Z,99.90
2023-03-18T00:31:28.908Z,99.90
2023-03-18T00:34:00.919Z,99.90
2023-03-18T00:36:30.451Z,99.90
2023-03-18T00:38:59.711Z,99.90
2023-03-18T00:41:28.585Z,99.90
2023-03-18T00:43:58.308Z,99.90
2023-03-18T00:46:28.563Z,99.90
2023-03-18T00:48:58.590Z,99.90
2023-03-18T00:51:29.352Z,99.90
2023-03-18T00:53:59.476Z,99.90
2023-03-18T00:56:30.855Z,99.60
2023-03-18T00:59:00.417Z,99.40
2023-03-18T01:01:29.299Z,99.30
2023-03-18T01:04:00.123Z,99.30
2023-03-18T01:06:34.278Z,99.50
2023-03-18T01:09:04.603Z,99.50
2023-03-18T01:11:33.323Z,99.30
2023-03-18T01:14:01.653Z,99.20
2023-03-18T01:16:30.214Z,99.60
2023-03-18T01:18:58.678Z,99.80
2023-03-18T01:21:26.712Z,99.90
2023-03-18T01:24:00.461Z,99.70
2023-03-18T01:26:29.362Z,99.70
2023-03-18T01:28:59.624Z,99.90
2023-03-18T01:31:29.867Z,99.90
2023-03-18T01:34:03.200Z,99.90
2023-03-18T01:36:40.791Z,99.90
2023-03-18T01:39:11.970Z,99.90
2023-03-18T01:41:40.794Z,99.90
2023-03-18T01:44:14.929Z,99.90
2023-03-18T01:46:45.949Z,99.90
2023-03-18T01:49:20.709Z,99.90
2023-03-18T01:51:55.013Z,99.90
2023-03-18T01:54:26.524Z,99.90
2023-03-18T01:56:55.595Z,99.90
2023-03-18T01:59:26.423Z,99.90
2023-03-18T02:01:58.201Z,99.90
2023-03-18T02:04:31.380Z,99.90
2023-03-18T02:07:01.326Z,99.90
2023-03-18T02:09:30.875Z,99.90
2023-03-18T02:12:02.063Z,99.90
2023-03-18T02:14:30.748Z,99.90
2023-03-18T02:17:02.701Z,99.90
2023-03-18T02:19:51.681Z,99.90
2023-03-18T02:22:27.909Z,99.90
2023-03-18T02:25:14.199Z,99.90
2023-03-18T02:27:46.287Z,99.90
2023-03-18T02:30:18.835Z,99.90
2023-03-18T02:32:51.930Z,99.90
2023-03-18T02:35:21.717Z,99.90
2023-03-18T02:37:51.353Z,99.90
2023-03-18T02:40:22.040Z,99.90
2023-03-18T02:42:52.341Z,99.90
2023-03-18T02:45:35.372Z,99.90
2023-03-18T02:48:17.880Z,99.90
2023-03-18T02:50:47.500Z,99.90
2023-03-18T02:53:16.262Z,99.90
2023-03-18T02:55:44.990Z,99.90
2023-03-18T02:58:14.321Z,99.90
2023-03-18T03:00:43.031Z,99.90
2023-03-18T03:03:11.155Z,99.90
2023-03-18T03:05:39.326Z,99.90
2023-03-18T03:08:08.006Z,99.90
2023-03-18T03:10:40.009Z,99.90
2023-03-18T03:13:09.728Z,99.90
2023-03-18T03:15:40.121Z,99.90
2023-03-18T03:18:08.658Z,99.90
2023-03-18T03:20:39.066Z,99.90
2023-03-18T03:23:08.520Z,99.90
2023-03-18T03:25:36.837Z,99.90
2023-03-18T03:28:05.552Z,99.90
2023-03-18T03:30:34.602Z,99.90
2023-03-18T03:33:04.094Z,99.90
2023-03-18T03:35:32.822Z,99.90
2023-03-18T03:38:01.090Z,99.90
2023-03-18T03:40:29.560Z,99.90
2023-03-18T03:42:57.838Z,99.90
2023-03-18T03:45:25.931Z,99.90
2023-03-18T03:47:55.811Z,99.90
2023-03-18T03:50:25.546Z,99.90
2023-03-18T03:52:54.214Z,99.90
2023-03-18T03:55:23.730Z,99.90
2023-03-18T03:57:54.002Z,99.90
2023-03-18T04:00:23.509Z,99.90
2023-03-18T04:02:53.188Z,99.90
2023-03-18T04:05:25.814Z,99.90
2023-03-18T04:07:55.335Z,99.90
2023-03-18T04:10:36.513Z,99.90
2023-03-18T04:13:07.166Z,99.90
2023-03-18T04:15:35.668Z,99.90
2023-03-18T04:18:09.255Z,99.90
2023-03-18T04:20:40.583Z,99.90
2023-03-18T04:23:33.127Z,99.90
2023-03-18T04:26:01.612Z,99.90
2023-03-18T04:28:30.091Z,99.90
2023-03-18T04:30:58.337Z,99.90
2023-03-18T04:33:26.607Z,99.90
2023-03-18T04:35:55.927Z,99.90
2023-03-18T04:38:24.525Z,99.90
2023-03-18T04:40:54.059Z,99.90
2023-03-18T04:43:22.297Z,99.90
2023-03-18T04:45:51.800Z,99.90
2023-03-18T04:48:20.558Z,99.90
2023-03-18T04:50:48.693Z,99.90
2023-03-18T04:53:24.506Z,99.90
2023-03-18T04:55:54.015Z,99.90
2023-03-18T04:58:27.565Z,99.90
2023-03-18T05:01:24.517Z,99.90
2023-03-18T05:03:53.267Z,99.90
2023-03-18T05:06:26.790Z,99.90
2023-03-18T05:08:59.056Z,99.90
2023-03-18T05:11:30.317Z,99.90
2023-03-18T05:14:02.042Z,99.90
2023-03-18T05:16:36.935Z,99.90
2023-03-18T05:19:05.796Z,99.90
2023-03-18T05:21:34.611Z,99.90
2023-03-18T05:24:04.680Z,99.90
2023-03-18T05:26:39.798Z,99.90
2023-03-18T05:29:09.917Z,99.90
2023-03-18T05:31:44.603Z,99.90
2023-03-18T05:34:13.477Z,99.90
2023-03-18T05:36:44.098Z,99.90
2023-03-18T05:39:13.386Z,99.90
2023-03-18T05:41:41.782Z,99.90
2023-03-18T05:44:13.209Z,99.90
2023-03-18T05:46:42.801Z,99.90
2023-03-18T05:49:31.294Z,99.90
2023-03-18T05:52:19.471Z,99.90
2023-03-18T05:54:51.078Z,99.90
2023-03-18T05:57:26.347Z,99.90
2023-03-18T06:00:01.052Z,99.90
2023-03-18T06:02:33.390Z,99.90
2023-03-18T06:05:01.547Z,99.90
2023-03-18T06:07:30.506Z,99.90
2023-03-18T06:09:59.800Z,99.90
2023-03-18T06:12:28.597Z,99.90
2023-03-18T06:14:56.567Z,99.90
2023-03-18T06:17:24.565Z,99.90
2023-03-18T06:19:52.584Z,99.90
2023-03-18T06:22:20.559Z,99.90
2023-03-18T06:24:48.992Z,99.90
2023-03-18T06:27:20.686Z,99.90
2023-03-18T06:29:54.963Z,99.90
2023-03-18T06:32:23.693Z,99.90
2023-03-18T06:34:52.504Z,99.90
2023-03-18T06:37:21.683Z,99.90
2023-03-18T06:39:50.885Z,99.90
2023-03-18T06:42:20.565Z,99.90
2023-03-18T06:45:12.182Z,99.90
2023-03-18T06:47:48.001Z,99.90
2023-03-18T06:50:16.553Z,99.90
2023-03-18T06:52:45.798Z,99.90
2023-03-18T06:55:17.421Z,99.90
2023-03-18T06:57:48.425Z,99.90
2023-03-18T07:00:21.788Z,99.90
2023-03-18T07:02:49.858Z,99.90
2023-03-18T07:05:20.580Z,99.90
2023-03-18T07:07:49.458Z,99.90
2023-03-18T07:10:21.703Z,99.90
2023-03-18T07:12:52.326Z,99.90
2023-03-18T07:15:21.710Z,99.90
2023-03-18T07:17:52.378Z,99.90
2023-03-18T07:20:22.236Z,99.90
2023-03-18T07:22:51.715Z,99.90
2023-03-18T07:25:22.839Z,99.90
2023-03-18T07:27:53.261Z,99.90
2023-03-18T07:30:21.797Z,99.90
2023-03-18T07:32:50.847Z,99.90
2023-03-18T07:35:19.143Z,99.90
2023-03-18T07:37:47.266Z,99.90
2023-03-18T07:40:16.815Z,99.90
2023-03-18T07:42:44.826Z,99.90
2023-03-18T07:45:15.232Z,99.90
2023-03-18T07:47:44.248Z,99.90
2023-03-18T07:50:13.593Z,99.90
2023-03-18T07:52:41.885Z,99.90
2023-03-18T07:55:10.676Z,99.90
2023-03-18T07:57:38.992Z,99.70
2023-03-18T08:00:10.422Z,99.40
2023-03-18T08:02:42.994Z,99.00
2023-03-18T08:05:11.711Z,98.40
2023-03-18T08:07:39.779Z,98.80
2023-03-18T08:10:09.982Z,97.70
2023-03-18T08:12:51.668Z,97.10
2023-03-18T08:15:20.402Z,96.80
2023-03-18T08:17:49.885Z,96.40
2023-03-18T08:20:18.144Z,95.80
2023-03-18T08:22:46.808Z,95.50
2023-03-18T08:25:15.818Z,95.40
2023-03-18T08:27:43.780Z,95.00
2023-03-18T08:30:13.671Z,94.80
2023-03-18T08:32:41.992Z,93.60
2023-03-18T08:35:12.746Z,93.10
2023-03-18T08:37:41.041Z,92.50
2023-03-18T08:40:10.685Z,92.60
2023-03-18T08:42:38.636Z,92.30
2023-03-18T08:45:07.939Z,91.20
2023-03-18T08:47:37.999Z,90.10
2023-03-18T08:50:07.106Z,89.40
2023-03-18T08:52:38.567Z,89.00
2023-03-18T08:55:08.196Z,88.80
2023-03-18T08:57:37.346Z,88.10
2023-03-18T09:00:05.798Z,86.00
2023-03-18T09:02:34.656Z,85.10
2023-03-18T09:05:02.774Z,83.70
2023-03-18T09:07:30.886Z,82.30
2023-03-18T09:10:00.209Z,79.20
2023-03-18T09:12:28.680Z,79.30
2023-03-18T09:14:57.468Z,79.10
2023-03-18T09:17:40.328Z,78.50
2023-03-18T09:20:16.815Z,77.80
2023-03-18T09:22:46.789Z,77.40
2023-03-18T09:25:25.726Z,77.40
2023-03-18T09:27:54.880Z,72.40
2023-03-18T09:30:23.217Z,75.00
2023-03-18T09:32:51.326Z,75.20
2023-03-18T09:35:19.587Z,74.40
2023-03-18T09:37:47.603Z,74.00
2023-03-18T09:40:23.181Z,73.90
2023-03-18T09:43:02.499Z,73.60
2023-03-18T09:45:35.922Z,70.30
2023-03-18T09:48:21.186Z,71.00
2023-03-18T09:51:01.212Z,69.40
2023-03-18T09:53:37.791Z,69.30
2023-03-18T09:56:11.782Z,69.10
2023-03-18T09:58:48.780Z,69.50
2023-03-18T10:01:18.872Z,68.10
2023-03-18T10:03:52.395Z,67.60
2023-03-18T10:06:23.100Z,68.00
2023-03-18T10:08:59.424Z,67.10
2023-03-18T10:11:33.240Z,64.80
2023-03-18T10:14:23.202Z,65.80
2023-03-18T10:17:01.324Z,65.70
2023-03-18T10:19:30.111Z,65.80
2023-03-18T10:22:13.692Z,64.20
2023-03-18T10:24:48.968Z,64.30
2023-03-18T10:27:22.416Z,61.30
2023-03-18T10:29:59.239Z,63.40
2023-03-18T10:32:49.009Z,61.60
2023-03-18T10:35:27.772Z,61.40
2023-03-18T10:38:02.253Z,60.90
2023-03-18T10:40:36.468Z,61.50
2023-03-18T10:43:15.814Z,61.00
2023-03-18T10:45:45.742Z,61.70
2023-03-18T10:48:19.005Z,58.10
2023-03-18T10:50:53.593Z,60.00
2023-03-18T10:53:28.062Z,58.90
2023-03-18T10:56:01.863Z,59.80
2023-03-18T10:58:32.156Z,59.50
2023-03-18T11:01:00.631Z,59.20
2023-03-18T11:03:32.160Z,57.90
2023-03-18T11:06:04.719Z,57.80
2023-03-18T11:08:35.592Z,56.80
2023-03-18T11:11:18.000Z,56.90
2023-03-18T11:13:52.919Z,57.40
2023-03-18T11:16:30.549Z,57.80
2023-03-18T11:18:59.606Z,57.00
2023-03-18T11:21:29.753Z,57.20
2023-03-18T11:24:10.222Z,55.20
2023-03-18T11:26:53.573Z,54.90
2023-03-18T11:29:27.074Z,56.50
2023-03-18T11:31:58.295Z,56.50
2023-03-18T11:34:27.168Z,55.80
2023-03-18T11:36:59.101Z,54.80
2023-03-18T11:39:28.745Z,53.40
2023-03-18T11:41:57.259Z,54.30
2023-03-18T11:44:31.982Z,52.90
2023-03-18T11:47:05.092Z,53.40
2023-03-18T11:49:33.419Z,52.50
2023-03-18T11:52:22.341Z,52.80
2023-03-18T11:55:10.853Z,52.90
2023-03-18T11:57:52.386Z,53.20
2023-03-18T12:00:30.041Z,53.60
2023-03-18T12:03:21.668Z,55.20
2023-03-18T12:06:03.895Z,55.30
2023-03-18T12:08:45.069Z,54.70
2023-03-18T12:11:20.302Z,55.70
2023-03-18T12:13:57.206Z,55.10
2023-03-18T12:16:42.016Z,53.50
2023-03-18T12:19:34.153Z,53.30
2023-03-18T12:22:17.575Z,54.20
2023-03-18T12:25:14.251Z,54.80
2023-03-18T12:27:50.771Z,54.80
2023-03-18T12:30:40.952Z,54.10
2023-03-18T12:33:25.231Z,52.50
2023-03-18T12:36:02.239Z,53.90
2023-03-18T12:38:56.327Z,53.40
2023-03-18T12:41:32.159Z,55.20
2023-03-18T12:44:13.556Z,56.00
2023-03-18T12:46:47.580Z,53.30
2023-03-18T12:49:22.321Z,53.80
2023-03-18T12:51:57.096Z,53.70
2023-03-18T12:54:28.550Z,52.70
2023-03-18T12:57:03.497Z,54.30
2023-03-18T12:59:37.461Z,55.40
2023-03-18T13:02:23.039Z,54.30
2023-03-18T13:04:57.864Z,55.00
2023-03-18T13:07:34.022Z,54.30
2023-03-18T13:10:07.426Z,53.30
2023-03-18T13:12:39.699Z,54.20
2023-03-18T13:15:17.290Z,53.20
2023-03-18T13:17:47.712Z,54.30
2023-03-18T13:20:22.000Z,53.00
2023-03-18T13:23:10.237Z,53.30
2023-03-18T13:25:42.205Z,53.70
2023-03-18T13:28:31.437Z,52.80
2023-03-18T13:31:10.578Z,52.40
2023-03-18T13:33:55.739Z,53.30
2023-03-18T13:36:56.286Z,52.70
2023-03-18T13:39:36.639Z,53.90
2023-03-18T13:42:23.992Z,54.40
2023-03-18T13:45:04.751Z,54.20
2023-03-18T13:47:35.732Z,51.60
2023-03-18T13:50:06.934Z,51.30
2023-03-18T13:52:42.012Z,52.00
2023-03-18T13:55:23.543Z,50.70
2023-03-18T13:57:58.095Z,49.90
2023-03-18T14:00:31.607Z,48.50
2023-03-18T14:03:16.079Z,47.70
2023-03-18T14:05:45.627Z,46.90
2023-03-18T14:08:44.583Z,44.90
2023-03-18T14:11:38.955Z,44.00
2023-03-18T14:14:07.185Z,43.60
2023-03-18T14:16:53.962Z,42.50
2023-03-18T14:19:28.560Z,42.90
2023-03-18T14:22:09.967Z,41.90
2023-03-18T14:24:39.647Z,43.20
2023-03-18T14:27:18.207Z,44.30
2023-03-18T14:29:48.455Z,43.70
2023-03-18T14:32:39.719Z,42.60
2023-03-18T14:35:28.248Z,42.80
2023-03-18T14:38:02.619Z,42.40
2023-03-18T14:40:36.464Z,43.10
2023-03-18T14:43:11.531Z,42.20
2023-03-18T14:45:44.865Z,42.00
2023-03-18T14:48:19.768Z,41.70
2023-03-18T14:50:50.811Z,41.50
2023-03-18T14:53:22.715Z,42.00
2023-03-18T14:55:56.487Z,40.90
2023-03-18T14:58:26.243Z,41.60
2023-03-18T15:00:57.390Z,40.30
2023-03-18T15:03:28.657Z,40.40
2023-03-18T15:06:00.393Z,40.40
2023-03-18T15:08:44.834Z,42.10
2023-03-18T15:11:18.170Z,41.00
2023-03-18T15:13:46.373Z,39.50
2023-03-18T15:16:15.821Z,40.40
2023-03-18T15:18:44.540Z,40.20
2023-03-18T15:21:16.542Z,40.30
2023-03-18T15:23:48.590Z,39.30
2023-03-18T15:26:21.453Z,39.10
2023-03-18T15:28:50.363Z,39.40
2023-03-18T15:31:26.531Z,39.80
2023-03-18T15:34:07.013Z,40.40
2023-03-18T15:36:42.511Z,40.60
2023-03-18T15:39:21.544Z,39.50
2023-03-18T15:41:54.910Z,39.40
2023-03-18T15:44:28.630Z,40.60
2023-03-18T15:47:04.098Z,41.40
2023-03-18T15:49:33.204Z,41.30
2023-03-18T15:52:03.539Z,41.40
2023-03-18T15:54:40.943Z,40.60
2023-03-18T15:57:14.987Z,41.60
2023-03-18T15:59:45.566Z,39.50
2023-03-18T16:02:18.495Z,40.20
2023-03-18T16:04:48.310Z,39.60
2023-03-18T16:07:19.503Z,40.00
2023-03-18T16:09:47.462Z,40.90
2023-03-18T16:12:20.487Z,41.00
2023-03-18T16:14:52.573Z,41.00
2023-03-18T16:17:22.261Z,41.50
2023-03-18T16:19:54.683Z,41.60
2023-03-18T16:22:23.047Z,41.30
2023-03-18T16:24:51.752Z,40.70
2023-03-18T16:27:29.999Z,41.00
2023-03-18T16:29:58.862Z,42.40
2023-03-18T16:32:27.591Z,42.00
2023-03-18T16:34:55.968Z,42.50
2023-03-18T16:37:26.596Z,42.80
2023-03-18T16:39:55.965Z,43.50
2023-03-18T16:42:27.142Z,44.00
2023-03-18T16:44:55.874Z,44.30
2023-03-18T16:47:27.178Z,44.80
2023-03-18T16:49:56.401Z,45.40
2023-03-18T16:52:25.291Z,45.60
2023-03-18T16:54:53.389Z,46.00
2023-03-18T16:57:23.634Z,46.40
2023-03-18T16:59:56.577Z,46.80
2023-03-18T17:02:33.396Z,47.10
2023-03-18T17:05:02.450Z,48.40
2023-03-18T17:07:30.458Z,48.00
2023-03-18T17:09:58.937Z,48.20
2023-03-18T17:12:27.252Z,48.40
2023-03-18T17:14:58.091Z,48.40
2023-03-18T17:17:29.772Z,48.80
2023-03-18T17:19:59.681Z,49.30
2023-03-18T17:22:29.532Z,49.40
2023-03-18T17:24:58.333Z,49.50
2023-03-18T17:27:31.646Z,49.70
2023-03-18T17:30:01.465Z,50.00
2023-03-18T17:32:29.559Z,50.10
2023-03-18T17:34:57.779Z,50.10
2023-03-18T17:37:26.119Z,50.20
2023-03-18T17:39:54.001Z,50.50
2023-03-18T17:42:29.575Z,50.90
2023-03-18T17:45:00.788Z,51.10
2023-03-18T17:47:30.468Z,51.40
2023-03-18T17:49:58.551Z,51.70
2023-03-18T17:52:27.210Z,52.00
2023-03-18T17:54:55.729Z,52.50
2023-03-18T17:57:24.290Z,52.60
2023-03-18T17:59:52.608Z,52.60
2023-03-18T18:02:21.276Z,52.70
2023-03-18T18:04:51.591Z,53.20
2023-03-18T18:07:21.808Z,53.80
2023-03-18T18:09:50.305Z,53.90
2023-03-18T18:12:23.014Z,54.30
2023-03-18T18:14:51.100Z,55.00
2023-03-18T18:17:19.325Z,55.20
2023-03-18T18:19:47.582Z,55.50
2023-03-18T18:22:19.009Z,56.20
2023-03-18T18:24:47.374Z,56.40
2023-03-18T18:27:16.781Z,57.10
2023-03-18T18:29:45.887Z,57.50
2023-03-18T18:32:15.602Z,58.40
2023-03-18T18:34:43.609Z,58.40
2023-03-18T18:37:11.969Z,59.10
2023-03-18T18:39:42.552Z,59.50
2023-03-18T18:42:12.505Z,59.60
2023-03-18T18:44:40.518Z,60.00
2023-03-18T18:47:18.877Z,60.50
2023-03-18T18:49:47.527Z,60.80
2023-03-18T18:52:15.574Z,61.00
2023-03-18T18:54:45.019Z,61.60
2023-03-18T18:57:24.847Z,61.40
2023-03-18T18:59:52.924Z,61.80
2023-03-18T19:02:30.445Z,62.30
2023-03-18T19:04:59.159Z,62.50
2023-03-18T19:07:27.659Z,63.00
2023-03-18T19:09:57.040Z,63.70
2023-03-18T19:12:24.942Z,63.50
2023-03-18T19:14:53.027Z,64.00
2023-03-18T19:17:23.481Z,64.30
2023-03-18T19:19:53.298Z,64.50
2023-03-18T19:22:22.650Z,64.90
2023-03-18T19:24:51.312Z,65.60
2023-03-18T19:27:24.607Z,67.20
2023-03-18T19:29:54.294Z,67.50
2023-03-18T19:32:23.446Z,68.00
2023-03-18T19:34:52.462Z,68.00
2023-03-18T19:37:26.174Z,68.30
2023-03-18T19:39:55.517Z,69.40
2023-03-18T19:42:24.815Z,69.70
2023-03-18T19:44:53.021Z,70.50
2023-03-18T19:47:24.139Z,70.50
2023-03-18T19:49:52.508Z,71.00
2023-03-18T19:52:22.021Z,72.10
2023-03-18T19:54:50.723Z,72.80
2023-03-18T19:57:20.953Z,73.50
2023-03-18T19:59:51.328Z,74.60
2023-03-18T20:02:22.948Z,75.70
2023-03-18T20:04:51.697Z,75.90
2023-03-18T20:07:21.206Z,77.10
2023-03-18T20:09:49.592Z,78.20
2023-03-18T20:12:24.769Z,78.30
2023-03-18T20:14:54.351Z,79.80
2023-03-18T20:17:31.721Z,80.50
2023-03-18T20:20:00.160Z,81.80
2023-03-18T20:22:32.204Z,82.30
2023-03-18T20:25:00.783Z,82.70
2023-03-18T20:27:29.820Z,82.60
2023-03-18T20:30:00.199Z,83.70
2023-03-18T20:32:28.242Z,85.30
2023-03-18T20:34:56.550Z,86.60
2023-03-18T20:37:30.986Z,87.60
2023-03-18T20:39:59.032Z,88.20
2023-03-18T20:42:27.265Z,90.10
2023-03-18T20:44:55.225Z,90.60
2023-03-18T20:47:24.582Z,91.10
2023-03-18T20:49:54.804Z,91.20
2023-03-18T20:52:26.633Z,91.10
2023-03-18T20:54:56.504Z,91.10
2023-03-18T20:57:24.653Z,91.10
2023-03-18T20:59:52.726Z,91.60
2023-03-18T21:02:31.852Z,91.90
2023-03-18T21:05:01.727Z,92.20
2023-03-18T21:07:30.707Z,92.50
2023-03-18T21:09:58.780Z,92.50
2023-03-18T21:12:26.742Z,92.80
2023-03-18T21:14:54.715Z,92.80
2023-03-18T21:17:24.389Z,93.40
2023-03-18T21:20:00.766Z,93.50
2023-03-18T21:22:34.167Z,93.90
2023-03-18T21:25:02.209Z,93.60
2023-03-18T21:27:30.331Z,93.80
2023-03-18T21:29:58.727Z,94.10
2023-03-18T21:32:29.855Z,94.00
2023-03-18T21:34:59.538Z,94.20
2023-03-18T21:37:28.210Z,95.00
2023-03-18T21:39:56.283Z,95.50
2023-03-18T21:42:26.445Z,95.60
2023-03-18T21:44:55.914Z,95.70
2023-03-18T21:47:26.074Z,96.00
2023-03-18T21:49:54.010Z,96.50
2023-03-18T21:52:30.232Z,96.50
2023-03-18T21:54:59.135Z,96.60
2023-03-18T21:57:28.510Z,96.70
2023-03-18T21:59:56.872Z,96.80
2023-03-18T22:02:29.204Z,96.80
2023-03-18T22:04:58.756Z,97.00
2023-03-18T22:07:29.782Z,97.30
2023-03-18T22:09:58.536Z,97.30
2023-03-18T22:12:28.682Z,97.80
2023-03-18T22:14:57.377Z,97.70
2023-03-18T22:17:27.104Z,97.90
2023-03-18T22:19:56.091Z,97.70
2023-03-18T22:22:26.225Z,97.60
2023-03-18T22:24:55.653Z,97.90
2023-03-18T22:27:25.811Z,97.50
2023-03-18T22:29:55.610Z,97.40
2023-03-18T22:32:40.213Z,97.40
2023-03-18T22:35:14.879Z,97.20
2023-03-18T22:37:43.065Z,97.20
2023-03-18T22:40:17.974Z,97.10
2023-03-18T22:42:47.689Z,97.20
2023-03-18T22:45:24.894Z,97.30
2023-03-18T22:47:54.818Z,97.50
2023-03-18T22:50:24.614Z,97.60
2023-03-18T22:52:57.558Z,97.60
2023-03-18T22:55:29.399Z,97.60
2023-03-18T22:57:57.420Z,97.70
2023-03-18T23:00:34.008Z,98.00
2023-03-18T23:03:02.588Z,98.10
2023-03-18T23:05:30.726Z,98.20
2023-03-18T23:07:58.708Z,98.40
2023-03-18T23:10:28.548Z,98.20
2023-03-18T23:12:56.666Z,98.40
2023-03-18T23:15:24.709Z,98.10
2023-03-18T23:17:52.831Z,98.40
2023-03-18T23:20:20.863Z,98.30
2023-03-18T23:22:48.861Z,98.30
2023-03-18T23:25:18.528Z,98.30
2023-03-18T23:27:47.907Z,98.10
2023-03-18T23:30:16.129Z,98.20
2023-03-18T23:32:44.159Z,98.20
2023-03-18T23:35:12.509Z,98.30
2023-03-18T23:37:40.727Z,98.50
2023-03-18T23:40:09.962Z,98.60
2023-03-18T23:42:37.874Z,98.70
2023-03-18T23:45:09.166Z,99.00
2023-03-18T23:47:37.267Z,98.90
2023-03-18T23:50:05.608Z,98.90
2023-03-18T23:52:34.141Z,99.10
2023-03-18T23:55:02.260Z,99.30
2023-03-18T23:57:30.456Z,99.40
2023-03-18T23:59:58.339Z,99.40
